Aérodrome :
LOGIN :

S'inscrire | Disclaimer

   EN    FR    IT 

 










Légende :    VFR   VFR Marginal   IFR   IFR Intensif   IFR Très Intensif
Visi : 
Plafond : 
>= 8 km
>= 3000ft
5 à 8 km
1000 à 3000 ft
1500m à 5 km
500 à 1000 ft
800 à 1500m
200 à 500 ft
< 800m
< 200 ft
Symboles :   Orages  Brouillard  Fortes neiges  Fortes précipitations  Vent > 20 kt
SIGMETs :   Divers  Orages  Givrage  Turbulence  Onde Orograph.  Cendres Volcan.






- Altitude de l'aérodrome : 162 ft
- Code IATA : BOD


LFBD - Bordeaux / Merignac

DERNIER METAR :
  • 190900Z AUTO 16007KT CAVOK 22/19 Q1013 BECMG 24010KT

METARs EXPIRÉS :
  • 190830Z AUTO 17006KT CAVOK 21/18 Q1013 BECMG 24010KT
  • 190800Z AUTO 16006KT 130V190 CAVOK 21/18 Q1013 NOSIG
  • 190730Z AUTO 15005KT 120V180 CAVOK 20/18 Q1013 BECMG 24010KT
  • 190700Z AUTO 13006KT CAVOK 19/17 Q1013 NOSIG
  • 190630Z AUTO 14006KT 100V180 CAVOK 19/18 Q1013 NOSIG

TAF AMD TAF LFBD
Valide du 19 à 08h jusqu'au 20 à 12h UTC


190831Z 1908/2012 11005KT CAVOK TX23/1912Z TN15/2003Z
BECMG 1909/1911 24010KT
TEMPO 1911/1918 4000 -SHRA SCT015 FEW040CB BKN050TCU
PROB40
TEMPO 1913/1917 24015G30KT 2000 TSRA BKN010 BKN030CB
BECMG 1922/1924 VRB03KT
PROB40
TEMPO 2000/2005 3000 BR BKN003
BECMG 2010/2012 24010KT
ATIS : +33 5 57 92 81 04



MET'MAP, la Météo Aéronautique d'un coup d'oeil ! - Copyright ORBIFLY Décembre 2007 - Disclaimer

ORBIFLY MET'MAP TEAM :

Programmation & Développement : Alexandra Zaïnal
Sur une idée originale de : Baudouin d'Aumeries
Assistance à la programmation : Marc-Olivier Méhu
Soutien technique & logistique : Manuel Goepfert

Contact : metmap@orbifly.com




SOURCES & CREDITS :

   NOAA